Terminal Aerodrome Forecast
Issued by NWS

Home | Current Version | Previous Version | Text Only | Print | Product List | Glossary On
Versions: 1 2 3 4 5 6 7 8 9 10 11 12 13
000
FTUS46 KOTX 180531
TAFMWH
TAF
KMWH 180531Z 1806/1906 20006KT P6SM SCT150 BKN200
     FM181500 12005KT P6SM BKN200
     FM190000 VRB04KT P6SM FEW150 BKN250=

USA.gov is the U.S. government's official web portal to all federal, state and local government web resources and services.